createdAt,value
2022-09-06T00:00:57.362Z,99603.11
2022-09-06T00:04:14.508Z,99595.23
2022-09-06T00:07:23.136Z,99597.89
2022-09-06T00:10:37.586Z,99592.99
2022-09-06T00:13:51.032Z,99587.06
2022-09-06T00:17:02.892Z,99587.92
2022-09-06T00:20:15.650Z,99575.70
2022-09-06T00:23:28.233Z,99580.48
2022-09-06T00:26:39.863Z,99576.55
2022-09-06T00:29:51.271Z,99578.96
2022-09-06T00:33:03.285Z,99578.67
2022-09-06T00:36:16.005Z,99587.38
2022-09-06T00:39:27.525Z,99586.81
2022-09-06T00:42:39.143Z,99583.98
2022-09-06T00:45:50.782Z,99575.56
2022-09-06T00:49:09.100Z,99577.92
2022-09-06T00:52:23.347Z,99581.83
2022-09-06T00:55:35.108Z,99572.42
2022-09-06T00:58:46.899Z,99583.08
2022-09-06T01:01:59.291Z,99581.66
2022-09-06T01:05:16.789Z,99586.45
2022-09-06T01:08:36.336Z,99573.27
2022-09-06T04:06:19.451Z,99542.41
2022-09-06T04:17:05.794Z,99548.62
2022-09-06T04:20:20.587Z,99550.06
2022-09-06T04:23:40.102Z,99552.95
2022-09-06T04:26:53.348Z,99555.38
2022-09-06T04:30:07.746Z,99544.62
2022-09-06T04:37:44.140Z,99549.44
2022-09-06T04:49:19.570Z,99555.47
2022-09-06T04:52:35.835Z,99548.66
2022-09-06T04:55:50.046Z,99554.68
2022-09-06T04:59:05.615Z,99560.45
2022-09-06T05:02:22.048Z,99559.94
2022-09-06T05:05:33.180Z,99554.12
2022-09-06T05:08:47.837Z,99550.61
2022-09-06T05:12:01.194Z,99556.85
2022-09-06T05:15:15.499Z,99556.34
2022-09-06T05:18:27.616Z,99558.35
2022-09-06T05:21:41.615Z,99560.26
2022-09-06T05:24:53.401Z,99560.66
2022-09-06T05:28:05.339Z,99557.14
2022-09-06T05:31:22.965Z,99553.35
2022-09-06T05:34:34.647Z,99552.25
2022-09-06T05:37:46.572Z,99550.69
2022-09-06T05:40:58.182Z,99567.64
2022-09-06T05:44:10.560Z,99568.94
2022-09-06T05:47:22.237Z,99569.07
2022-09-06T05:50:33.954Z,99564.22
2022-09-06T05:53:49.369Z,99562.74
2022-09-06T05:57:00.983Z,99560.79
2022-09-06T06:00:16.859Z,99556.42
2022-09-06T06:03:30.129Z,99569.54
2022-09-06T06:06:43.227Z,99566.48
2022-09-06T06:09:54.826Z,99579.98
2022-09-06T06:13:06.484Z,99566.57
2022-09-06T06:16:20.596Z,99567.98
2022-09-06T06:19:33.691Z,99572.33
2022-09-06T06:22:45.346Z,99557.88
2022-09-06T06:25:56.843Z,99562.05
2022-09-06T06:39:45.447Z,99553.61
2022-09-06T06:46:41.624Z,99549.58
2022-09-06T06:50:04.185Z,99547.94
2022-09-06T06:53:15.916Z,99547.64
2022-09-06T06:56:30.701Z,99559.28
2022-09-06T07:03:42.003Z,99551.67
2022-09-06T07:13:30.267Z,99545.80
2022-09-06T07:16:42.034Z,99544.82
2022-09-06T07:26:33.071Z,99544.75
2022-09-06T07:29:45.396Z,99550.66
2022-09-06T07:32:57.916Z,99552.84
2022-09-06T07:36:31.797Z,99554.28
2022-09-06T07:39:43.652Z,99555.80
2022-09-06T07:42:55.329Z,99553.20
2022-09-06T07:46:13.253Z,99552.82
2022-09-06T07:49:25.013Z,99562.28
2022-09-06T07:55:50.153Z,99541.25
2022-09-06T07:59:01.794Z,99543.02
2022-09-06T08:02:13.327Z,99542.60
2022-09-06T08:11:52.963Z,99537.36
2022-09-06T08:15:04.647Z,99535.27
2022-09-06T08:18:16.250Z,99535.16
2022-09-06T08:21:30.324Z,99529.31
2022-09-06T08:24:41.955Z,99532.31
2022-09-06T08:27:53.494Z,99516.73
2022-09-06T08:31:14.514Z,99517.60
2022-09-06T08:34:26.237Z,99511.23
2022-09-06T08:37:37.796Z,99503.81
2022-09-06T08:40:49.331Z,99512.09
2022-09-06T08:47:20.936Z,99494.14
2022-09-06T08:50:34.932Z,99488.33
2022-09-06T08:53:50.596Z,99487.70
2022-09-06T08:57:16.086Z,99490.41
2022-09-06T09:00:28.797Z,99494.79
2022-09-06T09:03:43.966Z,99481.40
2022-09-06T09:07:01.519Z,99492.44
2022-09-06T09:10:20.032Z,99500.80
2022-09-06T09:13:37.922Z,99490.27
2022-09-06T09:16:50.011Z,99491.30
2022-09-06T09:20:02.031Z,99483.75
2022-09-06T09:23:14.449Z,99481.72
2022-09-06T09:26:28.583Z,99465.14
2022-09-06T09:33:03.630Z,99467.01
2022-09-06T09:36:20.670Z,99463.73
2022-09-06T09:39:41.712Z,99455.86
2022-09-06T09:42:54.200Z,99447.69
2022-09-06T09:46:37.005Z,99436.63
2022-09-06T09:49:49.131Z,99444.36
2022-09-06T09:53:02.140Z,99426.92
2022-09-06T09:56:14.081Z,99434.23
2022-09-06T09:59:32.297Z,99427.88
2022-09-06T10:02:45.945Z,99422.59
2022-09-06T10:09:25.879Z,99421.80
2022-09-06T10:12:39.712Z,99414.73
2022-09-06T10:15:51.937Z,99399.80
2022-09-06T10:19:04.245Z,99398.41
2022-09-06T10:22:27.445Z,99399.76
2022-09-06T10:25:50.531Z,99397.56
2022-09-06T10:29:08.281Z,99387.47
2022-09-06T10:32:32.694Z,99383.34
2022-09-06T10:35:46.558Z,99393.83
2022-09-06T10:39:06.135Z,99388.58
2022-09-06T10:42:26.252Z,99382.14
2022-09-06T10:45:52.807Z,99379.20
2022-09-06T11:28:01.406Z,99362.13
2022-09-06T12:18:13.377Z,99322.53
2022-09-06T12:21:47.764Z,99322.81
2022-09-06T13:34:47.453Z,99272.19
2022-09-06T14:12:44.551Z,99242.52
2022-09-06T14:20:17.076Z,99237.90
2022-09-06T14:23:30.671Z,99234.95
2022-09-06T14:26:44.641Z,99233.74
2022-09-06T14:29:57.912Z,99228.73
2022-09-06T14:49:54.664Z,99205.80
2022-09-06T14:56:13.069Z,99215.34
2022-09-06T15:02:31.522Z,99216.52
2022-09-06T15:05:55.178Z,99215.97
2022-09-06T15:25:43.602Z,99206.22
2022-09-06T15:29:04.039Z,99208.70
2022-09-06T15:32:16.711Z,99194.13
2022-09-06T15:43:09.942Z,99194.02
2022-09-06T15:46:25.291Z,99198.55
2022-09-06T15:49:41.005Z,99195.00
2022-09-06T16:12:39.240Z,99193.10
2022-09-06T16:16:01.171Z,99192.67
2022-09-06T16:19:14.587Z,99191.55
2022-09-06T16:41:59.167Z,99188.39
2022-09-06T16:45:12.361Z,99187.84
2022-09-06T16:48:24.032Z,99185.63
2022-09-06T16:51:36.464Z,99182.41
2022-09-06T16:54:48.658Z,99184.02
2022-09-06T16:58:02.356Z,99181.63
2022-09-06T17:01:15.822Z,99179.89
2022-09-06T17:04:28.338Z,99184.34
2022-09-06T17:07:40.063Z,99179.78
2022-09-06T17:10:51.798Z,99185.02
2022-09-06T17:14:04.155Z,99187.05
2022-09-06T17:17:17.913Z,99185.84
2022-09-06T17:20:29.631Z,99185.58
2022-09-06T17:23:43.609Z,99176.48
2022-09-06T17:26:55.323Z,99184.83
2022-09-06T17:30:07.082Z,99180.17
2022-09-06T17:33:19.656Z,99181.53
2022-09-06T17:36:33.973Z,99186.60
2022-09-06T17:39:46.805Z,99189.67
2022-09-06T17:42:59.149Z,99193.81
2022-09-06T19:03:13.159Z,99238.81
2022-09-06T19:10:24.311Z,99238.49
2022-09-06T19:13:38.572Z,99250.43
2022-09-06T22:20:02.106Z,99202.86
2022-09-06T22:23:15.566Z,99204.84
2022-09-06T22:26:30.434Z,99209.21
2022-09-06T22:29:42.876Z,99193.80
2022-09-06T22:32:55.326Z,99196.31
2022-09-06T22:36:10.550Z,99189.76
2022-09-06T22:39:23.272Z,99184.34
2022-09-06T22:42:35.842Z,99187.45
2022-09-06T22:45:51.798Z,99183.28
2022-09-06T22:49:06.275Z,99178.39
2022-09-06T22:52:19.002Z,99187.37
2022-09-06T22:55:31.535Z,99187.84
2022-09-06T22:58:43.962Z,99184.77
2022-09-06T23:01:56.478Z,99186.06
2022-09-06T23:05:10.194Z,99177.80
2022-09-06T23:08:23.632Z,99190.45
2022-09-06T23:11:37.604Z,99181.48
2022-09-06T23:14:50.131Z,99187.94
2022-09-06T23:18:02.610Z,99186.81
2022-09-06T23:21:18.700Z,99181.10
2022-09-06T23:24:31.249Z,99186.19
2022-09-06T23:27:43.839Z,99190.52
2022-09-06T23:30:56.389Z,99190.13
2022-09-06T23:34:11.001Z,99188.16
2022-09-06T23:37:23.619Z,99176.48
2022-09-06T23:40:36.054Z,99181.98
2022-09-06T23:43:50.448Z,99174.52
2022-09-06T23:47:02.930Z,99173.98
2022-09-06T23:50:16.828Z,99168.11
2022-09-06T23:53:29.346Z,99158.00
2022-09-06T23:56:41.872Z,99156.63
2022-09-06T23:59:54.349Z,99158.59
